createdAt,value
2018-07-06T00:05:29.224Z,75
2018-07-06T00:10:57.520Z,75
2018-07-06T00:16:22.073Z,75
2018-07-06T00:21:55.662Z,75
2018-07-06T00:27:25.295Z,75
2018-07-06T00:32:49.054Z,76
2018-07-06T00:38:17.378Z,76
2018-07-06T00:43:46.310Z,76
2018-07-06T00:49:14.575Z,76
2018-07-06T00:54:44.201Z,76
2018-07-06T01:00:12.810Z,77
2018-07-06T01:05:42.373Z,77
2018-07-06T01:11:11.990Z,77
2018-07-06T01:16:40.786Z,77
2018-07-06T01:22:10.123Z,77
2018-07-06T01:22:11.026Z,77
2018-07-06T01:27:43.697Z,77
2018-07-06T01:33:08.340Z,77
2018-07-06T01:33:09.543Z,77
2018-07-06T01:38:36.840Z,77
2018-07-06T01:44:06.439Z,78
2018-07-06T01:44:07.709Z,78
2018-07-06T01:49:36.437Z,78
2018-07-06T01:55:04.982Z,78
2018-07-06T02:00:34.232Z,78
2018-07-06T02:06:08.225Z,78
2018-07-06T02:11:32.558Z,78
2018-07-06T02:17:06.008Z,78
2018-07-06T02:22:34.599Z,78
2018-07-06T02:27:58.079Z,78
2018-07-06T02:33:26.869Z,78
2018-07-06T02:39:00.612Z,78
2018-07-06T02:44:29.839Z,78
2018-07-06T02:49:58.320Z,78
2018-07-06T02:55:22.881Z,78
2018-07-06T03:00:51.547Z,78
2018-07-06T03:06:21.004Z,78
2018-07-06T03:11:49.556Z,78
2018-07-06T03:17:19.091Z,79
2018-07-06T03:22:47.630Z,79
2018-07-06T03:28:16.307Z,79
2018-07-06T03:33:44.887Z,79
2018-07-06T03:39:14.513Z,79
2018-07-06T03:44:47.130Z,79
2018-07-06T03:50:15.405Z,79
2018-07-06T03:55:38.886Z,79
2018-07-06T04:01:12.736Z,79
2018-07-06T04:06:42.186Z,79
2018-07-06T04:12:06.453Z,79
2018-07-06T04:17:36.024Z,79
2018-07-06T04:23:09.475Z,79
2018-07-06T04:28:33.995Z,79
2018-07-06T04:34:03.508Z,79
2018-07-06T04:39:32.126Z,78
2018-07-06T04:45:00.824Z,78
2018-07-06T04:50:30.417Z,78
2018-07-06T04:56:00.044Z,77
2018-07-06T05:01:28.245Z,77
2018-07-06T05:06:57.884Z,77
2018-07-06T05:12:26.272Z,77
2018-07-06T05:17:54.844Z,76
2018-07-06T05:23:28.596Z,77
2018-07-06T05:28:51.949Z,77
2018-07-06T05:34:25.521Z,76
2018-07-06T05:39:50.150Z,76
2018-07-06T05:45:18.881Z,76
2018-07-06T05:50:48.242Z,75
2018-07-06T05:56:18.046Z,75
2018-07-06T06:01:47.476Z,75
2018-07-06T06:07:16.949Z,75
2018-07-06T06:12:45.539Z,75
2018-07-06T06:18:15.136Z,74
2018-07-06T06:23:44.918Z,74
2018-07-06T06:29:13.379Z,73
2018-07-06T06:34:42.829Z,73
2018-07-06T06:40:11.722Z,73
2018-07-06T06:45:45.110Z,72
2018-07-06T06:51:08.668Z,72
2018-07-06T06:56:37.653Z,72
2018-07-06T07:02:05.996Z,71
2018-07-06T07:07:35.788Z,71
2018-07-06T07:13:04.318Z,71
2018-07-06T07:18:33.133Z,70
2018-07-06T07:24:01.905Z,70
2018-07-06T07:29:31.736Z,70
2018-07-06T07:35:06.073Z,70
2018-07-06T07:40:29.644Z,69
2018-07-06T07:46:04.918Z,69
2018-07-06T07:51:28.091Z,68
2018-07-06T07:56:58.023Z,68
2018-07-06T08:02:27.794Z,68
2018-07-06T08:07:56.292Z,67
2018-07-06T08:13:26.316Z,67
2018-07-06T08:18:54.855Z,67
2018-07-06T08:24:28.625Z,66
2018-07-06T08:29:57.401Z,66
2018-07-06T08:35:21.749Z,66
2018-07-06T08:40:56.114Z,65
2018-07-06T08:46:25.168Z,65
2018-07-06T08:51:48.637Z,65
2018-07-06T08:57:18.227Z,64
2018-07-06T09:02:52.363Z,64
2018-07-06T09:08:16.880Z,64
2018-07-06T09:08:21.307Z,64
2018-07-06T09:13:45.259Z,64
2018-07-06T09:19:14.153Z,63
2018-07-06T09:24:44.187Z,63
2018-07-06T09:30:12.840Z,63
2018-07-06T09:35:42.464Z,62
2018-07-06T09:41:16.644Z,62
2018-07-06T09:46:46.232Z,62
2018-07-06T10:14:10.349Z,60
2018-07-06T10:19:38.672Z,60
2018-07-06T10:25:13.731Z,60
2018-07-06T10:30:43.493Z,59
2018-07-06T10:36:08.409Z,59
2018-07-06T10:41:37.415Z,59
2018-07-06T10:47:06.293Z,59
2018-07-06T10:52:41.336Z,59
2018-07-06T10:58:05.245Z,59
2018-07-06T11:03:40.175Z,58
2018-07-06T11:09:10.446Z,58
2018-07-06T11:14:40.069Z,58
2018-07-06T11:20:09.085Z,58
2018-07-06T11:25:32.973Z,58
2018-07-06T11:31:03.014Z,57
2018-07-06T11:36:37.063Z,57
2018-07-06T11:42:01.985Z,57
2018-07-06T11:47:31.952Z,57
2018-07-06T11:53:01.233Z,57
2018-07-06T11:58:30.818Z,56
2018-07-06T12:04:00.817Z,56
2018-07-06T12:15:05.190Z,56
2018-07-06T12:20:28.963Z,55
2018-07-06T12:25:59.044Z,55
2018-07-06T12:31:28.959Z,55
2018-07-06T12:37:04.045Z,55
2018-07-06T12:42:29.025Z,55
2018-07-06T12:47:57.834Z,54
2018-07-06T13:15:29.485Z,53
2018-07-06T13:20:53.029Z,53
2018-07-06T13:26:22.303Z,53
2018-07-06T13:31:51.199Z,53
2018-07-06T13:37:20.240Z,53
2018-07-06T13:42:49.948Z,53
2018-07-06T13:53:52.990Z,53
2018-07-06T13:59:18.555Z,53
2018-07-06T14:04:47.126Z,53
2018-07-06T14:10:16.494Z,53
2018-07-06T14:15:45.134Z,52
2018-07-06T14:21:19.435Z,53
2018-07-06T14:26:44.454Z,53
2018-07-06T14:32:13.329Z,53
2018-07-06T14:37:43.132Z,53
2018-07-06T14:43:13.049Z,53
2018-07-06T14:48:43.267Z,53
2018-07-06T14:54:18.258Z,53
2018-07-06T14:59:42.255Z,53
2018-07-06T15:05:16.841Z,53
2018-07-06T15:10:46.859Z,53
2018-07-06T15:16:10.807Z,53
2018-07-06T15:21:39.623Z,53
2018-07-06T15:27:09.568Z,53
2018-07-06T15:32:39.714Z,53
2018-07-06T15:38:08.346Z,53
2018-07-06T15:43:43.493Z,53
2018-07-06T15:49:08.390Z,53
2018-07-06T15:54:42.076Z,53
2018-07-06T16:00:07.140Z,54
2018-07-06T16:05:36.083Z,54
2018-07-06T16:11:04.502Z,54
2018-07-06T16:16:39.398Z,54
2018-07-06T16:22:03.251Z,54
2018-07-06T16:27:32.140Z,54
2018-07-06T16:33:06.903Z,54
2018-07-06T16:38:30.609Z,54
2018-07-06T16:44:04.487Z,55
2018-07-06T16:49:28.231Z,55
2018-07-06T16:54:57.146Z,55
2018-07-06T17:00:26.692Z,55
2018-07-06T17:06:01.090Z,55
2018-07-06T17:11:24.213Z,56
2018-07-06T17:16:58.106Z,56
2018-07-06T17:22:21.685Z,56
2018-07-06T17:27:50.485Z,56
2018-07-06T17:33:19.090Z,56
2018-07-06T17:38:49.086Z,56
2018-07-06T17:44:19.023Z,56
2018-07-06T17:49:48.238Z,57
2018-07-06T17:55:18.290Z,57
2018-07-06T18:00:47.673Z,57
2018-07-06T18:06:22.541Z,57
2018-07-06T18:11:46.334Z,58
2018-07-06T18:17:15.748Z,58
2018-07-06T18:22:50.710Z,58
2018-07-06T18:28:15.139Z,59
2018-07-06T18:33:50.009Z,59
2018-07-06T18:39:14.818Z,59
2018-07-06T18:44:42.206Z,60
2018-07-06T18:50:10.758Z,60
2018-07-06T18:55:39.389Z,60
2018-07-06T19:01:08.892Z,60
2018-07-06T19:06:43.588Z,60
2018-07-06T19:12:07.222Z,61
2018-07-06T19:17:35.587Z,61
2018-07-06T19:23:10.180Z,61
2018-07-06T19:28:38.689Z,61
2018-07-06T19:34:03.625Z,61
2018-07-06T19:39:31.913Z,62
2018-07-06T19:45:05.732Z,62
2018-07-06T19:50:30.564Z,62
2018-07-06T19:56:04.751Z,62
2018-07-06T20:01:29.245Z,62
2018-07-06T20:06:58.891Z,62
2018-07-06T20:12:28.382Z,63
2018-07-06T20:17:56.947Z,63
2018-07-06T20:23:26.756Z,63
2018-07-06T20:28:56.349Z,63
2018-07-06T20:34:24.965Z,63
2018-07-06T20:39:53.787Z,64
2018-07-06T20:45:23.063Z,64
2018-07-06T20:50:52.234Z,64
2018-07-06T20:56:21.949Z,64
2018-07-06T21:01:51.532Z,65
2018-07-06T21:07:24.842Z,65
2018-07-06T21:12:53.299Z,65
2018-07-06T21:18:17.653Z,65
2018-07-06T21:29:19.970Z,66
2018-07-06T21:34:48.116Z,66
2018-07-06T21:45:41.300Z,66
2018-07-06T21:51:09.793Z,67
2018-07-06T21:56:43.221Z,67
2018-07-06T22:02:12.535Z,67
2018-07-06T22:07:37.202Z,67
2018-07-06T22:13:11.814Z,67
2018-07-06T22:18:34.734Z,67
2018-07-06T22:24:08.501Z,68
2018-07-06T22:29:31.850Z,68
2018-07-06T22:35:00.216Z,68
2018-07-06T22:40:28.718Z,68
2018-07-06T22:45:56.904Z,68
2018-07-06T22:51:25.783Z,68
2018-07-06T22:56:55.078Z,68
2018-07-06T23:02:23.560Z,69
2018-07-06T23:07:52.003Z,69
2018-07-06T23:13:20.116Z,69
2018-07-06T23:18:54.721Z,69
2018-07-06T23:24:18.844Z,69
2018-07-06T23:29:47.516Z,69
2018-07-06T23:35:15.937Z,69
2018-07-06T23:40:45.296Z,70
2018-07-06T23:46:14.539Z,70
2018-07-06T23:51:44.039Z,70
2018-07-06T23:57:17.430Z,70
